Trinchera, Colorado
Current Conditions -  °F | °C
As of 8:27 AM on Monday 22 Dec 2014 (Local Time) from KTAD Reporting Station
Moderate Snow Moderate Snow  
Wind Chill: 24°   Ceiling: 900
Heat Index: 31°   Visibility: 0.5mi
Dew Point: 29°   Wind: 7mph
Humidity: 92%   Direction: 190°S
Pressure: 29.8"   Gusts: NA
Location:  37.04°N, 104.05°W
Report Text: KTAD 221527Z AUTO 19006KT 1/2SM SN FZFG VV009 M01/M02 A2980 RMK AO2 P0000 T10061017
Loading
Personal Weather Stations






























Interactive Weather Map New forecast layout! Learn more

10-Day Weather Forecast

Advertisements
Track Severe Weather on mobile